Time;durP1;ratioP1;P1;durP2;ratioP2;P2;SDS_P1;SDS_P2;PMS_P1;PMS_P2;Temp;Humidity;BMP_temperature;BMP_pressure;BME280_temperature;BME280_humidity;BME280_pressure;Samples;Min_cycle;Max_cycle;Signal;HPM_P1;HPM_P2
2022/09/06 00:01:39;;;;;;;6.97;2.90;;;23.70;46.60;;;;;;5055755;28;20953;-64
2022/09/06 00:04:05;;;;;;;9.50;3.83;;;23.60;47.20;;;;;;5056128;28;20465;-62
2022/09/06 00:06:34;;;;;;;11.13;4.10;;;23.50;50.50;;;;;;5056168;28;20450;-63
2022/09/06 00:09:01;;;;;;;10.83;4.37;;;23.40;54.80;;;;;;5056137;28;20442;-63
2022/09/06 00:11:28;;;;;;;14.27;5.37;;;23.20;56.70;;;;;;5055973;28;20454;-64
2022/09/06 00:13:55;;;;;;;6.23;3.53;;;23.00;57.30;;;;;;5055782;28;20477;-64
2022/09/06 00:16:23;;;;;;;8.30;4.17;;;22.80;58.60;;;;;;5055501;28;20971;-64
2022/09/06 00:18:53;;;;;;;11.73;4.23;;;22.70;59.20;;;;;;5055501;28;20466;-64
2022/09/06 00:21:22;;;;;;;5.00;4.23;;;22.60;60.00;;;;;;5055766;28;20450;-63
2022/09/06 00:23:50;;;;;;;5.70;3.97;;;22.40;62.40;;;;;;5055225;28;20565;-64
2022/09/06 00:26:17;;;;;;;10.27;5.23;;;22.30;63.90;;;;;;5056733;28;20450;-64
2022/09/06 00:28:44;;;;;;;5.53;4.40;;;22.20;64.90;;;;;;5056040;28;20445;-64
2022/09/06 00:31:14;;;;;;;11.43;4.93;;;22.10;66.10;;;;;;5055798;28;20454;-64
2022/09/06 00:33:41;;;;;;;7.70;4.07;;;22.00;66.70;;;;;;5055323;28;20477;-64
2022/09/06 00:36:08;;;;;;;5.67;4.33;;;22.00;66.90;;;;;;5055214;28;20842;-64
2022/09/06 00:38:36;;;;;;;4.20;3.90;;;21.90;67.60;;;;;;5054983;28;20496;-64
2022/09/06 00:41:05;;;;;;;5.40;3.80;;;22.00;69.10;;;;;;5055230;28;20937;-63
2022/09/06 00:43:32;;;;;;;5.93;3.80;;;22.00;69.00;;;;;;5055227;28;20473;-64
2022/09/06 00:46:01;;;;;;;5.20;3.97;;;22.00;68.60;;;;;;5055670;28;20503;-64
2022/09/06 00:48:28;;;;;;;4.93;3.40;;;22.00;70.00;;;;;;5055494;28;20453;-64
2022/09/06 00:50:58;;;;;;;5.40;4.03;;;22.00;71.10;;;;;;5055180;28;20949;-63
2022/09/06 00:53:26;;;;;;;5.33;3.60;;;22.00;71.00;;;;;;5054969;28;20838;-63
2022/09/06 00:55:53;;;;;;;4.23;3.27;;;22.00;70.30;;;;;;5055066;28;20454;-63
2022/09/06 00:58:21;;;;;;;6.63;3.37;;;22.10;72.00;;;;;;5055128;28;20492;-64
2022/09/06 01:00:48;;;;;;;3.77;3.40;;;22.30;73.50;;;;;;5055094;28;20461;-63
2022/09/06 01:03:15;;;;;;;3.47;3.00;;;22.40;73.90;;;;;;5055210;28;20473;-63
2022/09/06 01:05:54;;;;;;;5.13;3.67;;;22.50;72.60;;;;;;5055112;28;20458;-63
2022/09/06 01:08:31;;;;;;;5.67;3.40;;;22.60;72.80;;;;;;5054915;28;20430;-64
2022/09/06 01:11:23;;;;;;;6.37;3.37;;;22.70;73.20;;;;;;5054934;28;20434;-64
2022/09/06 01:13:59;;;;;;;8.10;3.23;;;22.80;73.20;;;;;;5054893;28;20458;-64
2022/09/06 01:16:38;;;;;;;3.97;3.30;;;22.90;73.10;;;;;;5054671;28;20426;-64
2022/09/06 01:19:32;;;;;;;5.23;3.30;;;22.90;73.00;;;;;;5054590;28;20520;-64
2022/09/06 01:22:14;;;;;;;4.97;3.80;;;23.00;72.80;;;;;;5054592;28;20426;-64
2022/09/06 01:25:03;;;;;;;4.37;3.33;;;23.00;72.90;;;;;;5054614;28;20439;-64
2022/09/06 01:28:00;;;;;;;4.90;3.70;;;22.80;73.50;;;;;;5054476;28;20434;-65
2022/09/06 01:30:26;;;;;;;3.83;3.27;;;22.70;73.10;;;;;;5054453;28;20446;-65
2022/09/06 01:33:00;;;;;;;4.23;3.50;;;22.50;73.70;;;;;;5054372;28;20470;-64
2022/09/06 01:35:32;;;;;;;4.77;3.57;;;22.40;73.70;;;;;;5054405;28;20433;-66
2022/09/06 01:38:00;;;;;;;3.23;2.50;;;22.20;74.50;;;;;;5053428;28;20488;-66
2022/09/06 01:40:27;;;;;;;6.17;3.33;;;22.00;74.60;;;;;;5054475;28;20446;-65
2022/09/06 01:42:57;;;;;;;7.17;3.20;;;22.00;75.50;;;;;;5053922;28;20980;-65
2022/09/06 01:45:34;;;;;;;4.13;2.70;;;22.10;76.00;;;;;;5054743;28;20446;-66
2022/09/06 01:48:11;;;;;;;3.63;3.10;;;22.10;76.10;;;;;;5054832;28;20809;-66
2022/09/06 01:50:50;;;;;;;3.00;2.80;;;22.10;76.10;;;;;;5054385;28;20437;-65
2022/09/06 01:53:27;;;;;;;4.00;3.23;;;22.20;75.80;;;;;;5053846;28;20468;-66
2022/09/06 01:56:00;;;;;;;3.90;3.50;;;22.30;75.90;;;;;;5053948;28;20426;-66
2022/09/06 01:58:45;;;;;;;3.90;2.70;;;22.30;76.10;;;;;;5053323;28;20477;-66
2022/09/06 02:01:21;;;;;;;3.23;2.90;;;22.30;75.00;;;;;;5053708;28;20438;-65
2022/09/06 02:03:57;;;;;;;3.20;2.90;;;22.40;75.20;;;;;;5053715;28;20465;-67
2022/09/06 02:06:27;;;;;;;5.60;3.30;;;22.40;75.30;;;;;;5053368;28;20940;-67
2022/09/06 02:08:58;;;;;;;5.43;2.93;;;22.40;75.10;;;;;;5053258;28;20437;-66
2022/09/06 02:11:26;;;;;;;3.57;3.20;;;22.40;74.80;;;;;;5053374;28;20917;-67
2022/09/06 02:14:01;;;;;;;3.93;3.00;;;22.40;74.10;;;;;;5053644;28;20465;-66
2022/09/06 02:16:30;;;;;;;4.10;2.67;;;22.40;73.80;;;;;;5053271;28;20432;-65
2022/09/06 02:19:02;;;;;;;11.60;3.60;;;22.40;73.00;;;;;;5052997;28;20494;-66
2022/09/06 02:21:34;;;;;;;6.63;3.70;;;22.40;74.20;;;;;;5053577;28;20461;-66
2022/09/06 02:24:05;;;;;;;4.30;3.10;;;22.40;74.40;;;;;;5053511;28;20477;-66
2022/09/06 02:26:36;;;;;;;4.80;3.07;;;22.50;74.30;;;;;;5053258;28;20806;-66
2022/09/06 02:29:04;;;;;;;3.73;2.60;;;22.50;73.20;;;;;;5053524;28;20426;-66
2022/09/06 02:31:35;;;;;;;3.67;2.80;;;22.50;72.90;;;;;;5053442;28;20457;-66
2022/09/06 02:34:02;;;;;;;6.80;3.10;;;22.50;74.50;;;;;;5053425;28;20488;-66
2022/09/06 02:36:30;;;;;;;4.40;3.40;;;22.50;74.80;;;;;;5053407;28;20445;-66
2022/09/06 02:39:00;;;;;;;3.80;3.00;;;22.60;75.60;;;;;;5053345;28;20489;-66
2022/09/06 02:41:29;;;;;;;3.20;2.90;;;22.50;75.30;;;;;;5053346;28;20442;-65
2022/09/06 02:43:56;;;;;;;5.00;2.50;;;22.50;74.60;;;;;;5053346;28;20477;-65
2022/09/06 02:46:24;;;;;;;4.33;2.60;;;22.50;73.20;;;;;;5053216;28;20449;-65
2022/09/06 02:48:51;;;;;;;5.50;2.70;;;22.50;73.70;;;;;;5053268;28;20452;-66
2022/09/06 02:51:19;;;;;;;3.47;3.00;;;22.60;73.90;;;;;;5056550;28;20454;-66
2022/09/06 02:53:46;;;;;;;3.60;3.30;;;22.60;73.60;;;;;;5057272;28;20470;-66
2022/09/06 02:56:12;;;;;;;4.63;2.70;;;22.60;74.20;;;;;;5057329;28;20457;-66
2022/09/06 02:58:39;;;;;;;4.50;3.70;;;22.70;74.80;;;;;;5057102;28;20484;-67
2022/09/06 03:01:06;;;;;;;6.37;3.80;;;22.70;75.40;;;;;;5056991;28;20813;-66
2022/09/06 03:03:34;;;;;;;3.23;2.90;;;22.70;75.50;;;;;;5057342;28;20519;-67
2022/09/06 03:06:02;;;;;;;5.87;3.30;;;22.70;75.30;;;;;;5057252;28;20453;-66
2022/09/06 03:08:32;;;;;;;3.20;2.90;;;22.70;75.40;;;;;;5057111;28;20460;-66
2022/09/06 03:10:59;;;;;;;3.93;2.87;;;22.60;75.60;;;;;;5057084;28;20445;-66
2022/09/06 03:13:27;;;;;;;5.23;3.20;;;22.60;75.10;;;;;;5057070;28;20481;-66
2022/09/06 03:15:56;;;;;;;5.73;4.17;;;22.60;75.00;;;;;;5056955;28;20536;-66
2022/09/06 03:18:23;;;;;;;5.57;4.07;;;22.60;73.80;;;;;;5056521;28;20474;-66
2022/09/06 03:20:51;;;;;;;6.70;3.40;;;22.60;74.20;;;;;;5056439;28;20454;-66
2022/09/06 03:23:19;;;;;;;4.10;3.33;;;22.60;75.00;;;;;;5056859;28;20484;-65
2022/09/06 03:25:46;;;;;;;6.90;3.40;;;22.60;75.60;;;;;;5056681;28;20810;-65
2022/09/06 03:28:13;;;;;;;5.40;3.63;;;22.60;76.00;;;;;;5056648;28;20460;-65
2022/09/06 03:30:40;;;;;;;6.47;3.30;;;22.60;76.40;;;;;;5056651;28;20450;-65
2022/09/06 03:33:07;;;;;;;4.13;3.73;;;22.60;76.70;;;;;;5056595;28;20838;-67
2022/09/06 03:35:33;;;;;;;3.70;3.17;;;22.70;75.80;;;;;;5056632;28;20507;-66
2022/09/06 03:38:02;;;;;;;6.87;3.43;;;22.60;75.10;;;;;;5056314;28;20843;-66
2022/09/06 03:40:28;;;;;;;5.27;3.47;;;22.60;75.30;;;;;;5056178;28;20851;-66
2022/09/06 03:42:55;;;;;;;4.00;3.60;;;22.60;75.80;;;;;;5056190;28;20481;-66
2022/09/06 03:45:22;;;;;;;7.37;4.10;;;22.60;75.40;;;;;;5055984;28;20461;-66
2022/09/06 03:47:50;;;;;;;7.43;3.83;;;22.60;74.20;;;;;;5056255;28;20454;-65
2022/09/06 03:50:17;;;;;;;4.13;3.73;;;22.50;74.00;;;;;;5056211;28;20809;-65
2022/09/06 03:52:44;;;;;;;5.17;3.70;;;22.50;74.70;;;;;;5056104;28;20473;-65
2022/09/06 03:55:12;;;;;;;7.50;3.80;;;22.40;74.80;;;;;;5055624;28;20457;-65
2022/09/06 03:57:39;;;;;;;4.50;3.80;;;22.40;75.30;;;;;;5056023;28;20441;-66
2022/09/06 04:00:07;;;;;;;5.10;4.27;;;22.30;76.00;;;;;;5055863;28;20469;-65
2022/09/06 04:02:34;;;;;;;5.83;4.40;;;22.20;76.40;;;;;;5055474;28;20480;-65
2022/09/06 04:05:01;;;;;;;5.93;4.20;;;22.10;76.50;;;;;;5055842;28;20454;-65
2022/09/06 04:07:30;;;;;;;6.33;4.57;;;22.00;76.00;;;;;;5055972;28;20457;-67
2022/09/06 04:09:57;;;;;;;6.10;5.50;;;22.00;76.50;;;;;;5055969;28;20440;-66
2022/09/06 04:12:25;;;;;;;9.27;4.80;;;22.00;76.90;;;;;;5055867;28;20466;-65
2022/09/06 04:14:52;;;;;;;7.50;5.00;;;22.00;76.70;;;;;;5055751;28;20492;-66
2022/09/06 04:17:19;;;;;;;6.03;4.20;;;21.90;76.40;;;;;;5055703;28;20469;-65
2022/09/06 04:19:45;;;;;;;8.73;4.20;;;21.90;77.20;;;;;;5055581;28;20838;-65
2022/09/06 04:22:12;;;;;;;5.43;4.70;;;21.90;77.20;;;;;;5055164;28;21008;-65
2022/09/06 04:24:39;;;;;;;11.10;5.33;;;21.90;77.20;;;;;;5055189;28;20449;-66
2022/09/06 04:27:06;;;;;;;8.97;5.10;;;22.00;77.30;;;;;;5055229;28;21056;-66
2022/09/06 04:29:34;;;;;;;6.37;4.37;;;21.90;77.10;;;;;;5055846;28;20450;-66
2022/09/06 04:32:01;;;;;;;5.50;5.10;;;21.90;76.80;;;;;;5055800;28;20433;-65
2022/09/06 04:34:27;;;;;;;7.43;5.77;;;21.90;76.80;;;;;;5056068;28;20464;-65
2022/09/06 04:36:55;;;;;;;7.87;5.77;;;21.90;77.50;;;;;;5056459;28;20461;-67
2022/09/06 04:39:21;;;;;;;6.90;5.23;;;21.80;77.10;;;;;;5058011;28;20466;-64
2022/09/06 04:41:48;;;;;;;7.40;6.10;;;21.80;77.70;;;;;;5058198;28;20446;-63
2022/09/06 04:44:15;;;;;;;9.10;6.13;;;21.70;77.90;;;;;;5058785;28;20453;-64
2022/09/06 04:46:43;;;;;;;9.63;6.53;;;21.70;78.30;;;;;;5059075;28;20450;-63
2022/09/06 04:49:10;;;;;;;9.47;6.40;;;21.70;78.70;;;;;;5058137;28;20449;-63
2022/09/06 04:51:38;;;;;;;8.67;6.40;;;21.70;78.90;;;;;;5057874;28;20453;-64
2022/09/06 04:54:05;;;;;;;5.60;5.00;;;21.70;78.70;;;;;;5057762;28;20513;-63
2022/09/06 04:56:32;;;;;;;9.40;6.43;;;21.60;78.50;;;;;;5057550;28;20979;-63
2022/09/06 04:58:59;;;;;;;10.47;6.90;;;21.60;78.00;;;;;;5057316;28;21035;-63
2022/09/06 05:01:26;;;;;;;12.77;7.60;;;21.60;77.80;;;;;;5057580;28;20442;-64
2022/09/06 05:03:54;;;;;;;8.63;6.73;;;21.50;77.60;;;;;;5057152;28;20468;-64
2022/09/06 05:06:22;;;;;;;11.30;7.80;;;21.50;77.30;;;;;;5056597;28;20433;-64
2022/09/06 05:08:49;;;;;;;9.43;7.37;;;21.60;78.20;;;;;;5056713;28;20928;-63
2022/09/06 05:11:17;;;;;;;9.77;6.60;;;21.50;78.80;;;;;;5057533;28;20949;-63
2022/09/06 05:13:45;;;;;;;7.37;6.50;;;21.50;79.10;;;;;;5056164;28;20512;-63
2022/09/06 05:16:11;;;;;;;8.87;7.43;;;21.40;79.00;;;;;;5057942;28;20456;-63
2022/09/06 05:18:38;;;;;;;10.33;6.70;;;21.40;79.20;;;;;;5057880;28;20503;-64
2022/09/06 05:21:06;;;;;;;9.10;7.50;;;21.40;80.50;;;;;;5058386;28;20505;-63
2022/09/06 05:23:33;;;;;;;8.10;7.40;;;21.30;80.50;;;;;;5058019;28;20474;-63
2022/09/06 05:26:00;;;;;;;7.77;6.33;;;21.30;80.60;;;;;;5057889;28;20419;-63
2022/09/06 05:28:27;;;;;;;7.70;6.90;;;21.30;79.90;;;;;;5057603;28;20454;-64
2022/09/06 05:30:53;;;;;;;9.30;6.33;;;21.30;80.10;;;;;;5057905;28;20450;-63
2022/09/06 05:33:22;;;;;;;7.63;5.77;;;21.40;80.60;;;;;;5057134;28;20484;-63
2022/09/06 05:35:49;;;;;;;7.50;6.60;;;21.40;80.60;;;;;;5057558;28;20487;-63
2022/09/06 05:38:17;;;;;;;7.60;6.60;;;21.40;80.50;;;;;;5057584;28;20450;-63
2022/09/06 05:40:44;;;;;;;8.07;5.60;;;21.40;80.40;;;;;;5057767;28;20441;-63
2022/09/06 05:43:11;;;;;;;7.07;6.37;;;21.50;80.30;;;;;;5057460;28;20465;-63
2022/09/06 05:45:37;;;;;;;8.13;7.07;;;21.50;80.00;;;;;;5056140;28;20826;-63
2022/09/06 05:48:04;;;;;;;7.37;6.60;;;21.60;79.80;;;;;;5055983;28;20449;-63
2022/09/06 05:50:31;;;;;;;10.17;6.73;;;21.60;78.60;;;;;;5055166;28;20489;-63
2022/09/06 05:52:58;;;;;;;8.00;6.17;;;21.70;78.30;;;;;;5055334;28;20476;-63
2022/09/06 05:55:26;;;;;;;7.43;6.70;;;21.80;78.90;;;;;;5054737;28;20458;-63
2022/09/06 05:57:53;;;;;;;8.93;6.63;;;21.80;78.30;;;;;;5054541;28;20450;-63
2022/09/06 06:00:20;;;;;;;7.57;6.77;;;21.80;78.40;;;;;;5054847;28;20453;-64
2022/09/06 06:02:47;;;;;;;7.53;5.47;;;21.90;78.60;;;;;;5054008;28;20489;-66
2022/09/06 06:05:15;;;;;;;9.87;6.97;;;21.90;78.20;;;;;;5053300;28;20497;-67
2022/09/06 06:07:42;;;;;;;6.87;6.27;;;22.00;78.10;;;;;;5053446;28;20453;-68
2022/09/06 06:10:09;;;;;;;7.57;6.50;;;22.00;77.60;;;;;;5053618;28;20477;-68
2022/09/06 06:12:37;;;;;;;7.73;7.03;;;22.00;77.90;;;;;;5053625;28;20547;-68
2022/09/06 06:15:05;;;;;;;9.37;6.63;;;22.00;77.60;;;;;;5053526;28;20461;-68
2022/09/06 06:17:32;;;;;;;10.93;6.63;;;22.00;77.10;;;;;;5053631;28;20533;-68
2022/09/06 06:19:58;;;;;;;9.47;6.53;;;22.10;77.80;;;;;;5053190;28;20956;-68
2022/09/06 06:22:25;;;;;;;9.97;6.70;;;22.00;77.60;;;;;;5053299;28;20472;-68
2022/09/06 06:24:52;;;;;;;15.00;6.87;;;22.10;77.60;;;;;;5052920;28;20457;-68
2022/09/06 06:27:18;;;;;;;8.37;6.60;;;22.10;77.60;;;;;;5053418;28;20446;-68
2022/09/06 06:29:47;;;;;;;7.63;6.80;;;22.10;77.90;;;;;;5053319;28;20494;-68
2022/09/06 06:32:13;;;;;;;7.60;6.90;;;22.20;78.30;;;;;;5053356;28;20472;-68
2022/09/06 06:34:40;;;;;;;8.40;7.03;;;22.20;78.30;;;;;;5053335;28;20446;-68
2022/09/06 06:37:07;;;;;;;9.27;8.13;;;22.20;78.10;;;;;;5053111;28;20536;-68
2022/09/06 06:39:34;;;;;;;8.90;8.00;;;22.30;77.60;;;;;;5053426;28;20438;-68
2022/09/06 06:42:00;;;;;;;8.83;7.20;;;22.30;77.50;;;;;;5053580;28;20448;-68
2022/09/06 06:44:27;;;;;;;7.43;6.73;;;22.30;77.50;;;;;;5053158;28;20446;-68
2022/09/06 06:46:56;;;;;;;8.90;7.50;;;22.40;77.90;;;;;;5053498;28;20500;-68
2022/09/06 06:49:23;;;;;;;9.70;7.40;;;22.50;77.40;;;;;;5055062;28;20486;-68
2022/09/06 06:51:50;;;;;;;11.67;8.77;;;22.50;76.80;;;;;;5053704;28;20817;-68
2022/09/06 06:54:17;;;;;;;9.27;7.63;;;22.60;76.70;;;;;;5053568;28;20971;-68
2022/09/06 06:56:44;;;;;;;8.03;7.23;;;22.70;75.90;;;;;;5053753;28;20893;-68
2022/09/06 06:59:11;;;;;;;8.00;7.30;;;22.70;75.30;;;;;;5054166;28;20545;-68
2022/09/06 07:01:38;;;;;;;9.93;7.00;;;22.70;74.70;;;;;;5053516;28;20833;-68
2022/09/06 07:04:09;;;;;;;8.73;7.97;;;22.80;74.70;;;;;;5053172;28;21015;-68
2022/09/06 07:06:50;;;;;;;10.97;8.07;;;22.80;74.80;;;;;;5053333;28;20434;-68
2022/09/06 07:13:22;;;;;;;9.53;6.50;;;22.90;74.10;;;;;;5053166;28;20859;-68
2022/09/06 07:15:49;;;;;;;5.37;4.97;;;23.00;74.40;;;;;;5053292;28;20471;-68
2022/09/06 07:18:16;;;;;;;8.10;6.10;;;23.10;73.40;;;;;;5053256;28;20476;-68
2022/09/06 07:20:44;;;;;;;5.80;5.00;;;23.20;72.10;;;;;;5052850;28;20434;-68
2022/09/06 07:23:11;;;;;;;6.60;5.20;;;23.30;71.20;;;;;;5052963;28;20846;-69
2022/09/06 07:25:38;;;;;;;7.77;5.13;;;23.30;71.00;;;;;;5052945;28;20437;-68
2022/09/06 07:28:06;;;;;;;5.73;4.13;;;23.40;70.90;;;;;;5053154;28;20499;-68
2022/09/06 07:30:35;;;;;;;6.70;4.20;;;23.50;70.70;;;;;;5052815;28;20485;-68
2022/09/06 07:33:04;;;;;;;6.13;4.30;;;23.60;71.10;;;;;;5053201;28;20504;-68
2022/09/06 07:35:31;;;;;;;4.37;3.97;;;23.70;69.60;;;;;;5053196;28;20521;-68
2022/09/06 07:38:00;;;;;;;5.80;3.97;;;23.80;68.70;;;;;;5056472;28;20461;-68
2022/09/06 07:40:29;;;;;;;4.10;3.37;;;24.00;68.00;;;;;;5056759;28;20442;-68
2022/09/06 07:42:57;;;;;;;4.93;3.23;;;24.10;67.80;;;;;;5056745;28;20482;-68
2022/09/06 07:45:24;;;;;;;5.53;3.90;;;24.30;66.60;;;;;;5056407;28;20488;-68
2022/09/06 07:47:55;;;;;;;5.20;3.17;;;24.50;65.60;;;;;;5056527;28;20453;-68
2022/09/06 07:50:21;;;;;;;4.10;3.67;;;24.60;64.70;;;;;;5056275;28;20481;-68
2022/09/06 07:52:48;;;;;;;6.80;3.20;;;24.80;64.50;;;;;;5056008;28;20470;-68
2022/09/06 07:55:16;;;;;;;4.90;2.80;;;24.90;63.10;;;;;;5056715;28;20445;-68
2022/09/06 07:57:43;;;;;;;6.50;3.50;;;24.90;63.10;;;;;;5056376;28;20457;-68
2022/09/06 08:00:11;;;;;;;3.33;3.00;;;25.10;63.10;;;;;;5056445;28;20454;-68
2022/09/06 08:02:39;;;;;;;5.10;2.70;;;25.20;62.20;;;;;;5056630;28;20468;-68
2022/09/06 08:05:07;;;;;;;5.80;3.30;;;25.40;60.90;;;;;;5056175;28;20557;-68
2022/09/06 08:07:34;;;;;;;2.83;2.57;;;25.50;59.80;;;;;;5055952;28;20457;-68
2022/09/06 08:10:01;;;;;;;3.40;2.97;;;25.60;59.00;;;;;;5055805;28;20478;-68
2022/09/06 08:12:29;;;;;;;3.13;2.30;;;25.70;58.30;;;;;;5055480;28;20569;-68
2022/09/06 08:14:56;;;;;;;2.37;1.97;;;25.80;57.50;;;;;;5055785;28;20441;-68
2022/09/06 08:17:23;;;;;;;3.60;2.20;;;25.90;56.90;;;;;;5055553;28;20941;-68
2022/09/06 08:19:50;;;;;;;7.00;2.87;;;26.10;56.50;;;;;;5055876;28;20817;-68
2022/09/06 08:22:17;;;;;;;3.50;2.10;;;26.20;56.00;;;;;;5055792;28;20476;-68
2022/09/06 08:24:44;;;;;;;6.20;2.83;;;26.30;56.00;;;;;;5055530;28;20967;-69
2022/09/06 08:27:10;;;;;;;3.57;2.00;;;26.50;54.20;;;;;;5055756;28;20893;-68
2022/09/06 08:29:38;;;;;;;3.30;2.23;;;26.60;53.50;;;;;;5055669;28;20941;-68
2022/09/06 08:32:05;;;;;;;2.60;2.03;;;26.70;52.60;;;;;;5055378;28;20477;-68
2022/09/06 08:34:32;;;;;;;2.70;1.77;;;26.90;52.50;;;;;;5055699;28;20473;-68
2022/09/06 08:36:59;;;;;;;2.03;1.83;;;27.00;51.80;;;;;;5055654;28;20458;-68
2022/09/06 08:39:26;;;;;;;5.20;2.67;;;27.10;51.10;;;;;;5056389;28;20453;-68
2022/09/06 08:41:57;;;;;;;2.57;2.33;;;27.30;51.10;;;;;;5055524;28;20533;-68
2022/09/06 08:44:28;;;;;;;3.40;2.43;;;27.40;50.90;;;;;;5055576;28;20435;-68
2022/09/06 08:46:59;;;;;;;2.83;2.20;;;27.70;50.90;;;;;;5055076;28;20430;-68
2022/09/06 08:49:29;;;;;;;3.67;2.17;;;28.00;50.40;;;;;;5055477;28;20430;-68
2022/09/06 08:52:16;;;;;;;4.20;1.60;;;28.30;48.70;;;;;;5055026;28;20474;-68
2022/09/06 08:54:51;;;;;;;3.77;2.20;;;28.60;47.50;;;;;;5055249;28;20434;-68
2022/09/06 08:57:37;;;;;;;3.83;1.80;;;28.80;47.20;;;;;;5055434;28;20440;-68
2022/09/06 09:00:08;;;;;;;4.77;1.67;;;29.00;45.80;;;;;;5055435;28;20433;-68
2022/09/06 09:02:42;;;;;;;3.87;2.00;;;29.10;44.60;;;;;;5055012;28;20469;-68
2022/09/06 09:05:19;;;;;;;2.60;1.83;;;29.20;44.60;;;;;;5054982;28;20794;-68
2022/09/06 09:07:51;;;;;;;2.80;2.07;;;29.40;45.30;;;;;;5054908;28;20448;-68
2022/09/06 09:10:23;;;;;;;3.00;2.80;;;29.70;45.90;;;;;;5054956;28;20470;-68
2022/09/06 09:12:50;;;;;;;4.37;2.47;;;29.90;45.50;;;;;;5055267;28;20549;-68
2022/09/06 09:15:19;;;;;;;3.17;2.70;;;30.10;45.50;;;;;;5055167;28;20472;-68
2022/09/06 09:17:50;;;;;;;3.47;2.57;;;30.40;45.70;;;;;;5054610;28;20940;-68
2022/09/06 09:20:17;;;;;;;4.07;2.60;;;30.70;45.50;;;;;;5054908;28;20426;-69
2022/09/06 09:22:45;;;;;;;3.87;2.50;;;31.00;44.80;;;;;;5054495;28;20477;-69
2022/09/06 09:25:19;;;;;;;4.73;2.73;;;31.20;44.00;;;;;;5054433;28;20959;-69
2022/09/06 09:27:46;;;;;;;3.77;3.00;;;31.40;42.50;;;;;;5054269;28;20437;-69
2022/09/06 09:30:13;;;;;;;4.30;2.60;;;31.60;42.00;;;;;;5054485;28;20476;-69
2022/09/06 09:32:42;;;;;;;6.10;2.70;;;31.90;41.10;;;;;;5054525;28;20482;-68
2022/09/06 09:35:19;;;;;;;15.40;6.27;;;32.10;41.40;;;;;;5054406;28;20453;-69
2022/09/06 09:37:47;;;;;;;7.53;3.53;;;32.40;42.10;;;;;;5054031;28;20467;-69
2022/09/06 09:40:15;;;;;;;2.33;2.10;;;32.60;41.70;;;;;;5054773;28;20452;-69
2022/09/06 09:42:43;;;;;;;3.23;2.10;;;32.80;39.20;;;;;;5054321;28;20472;-68
2022/09/06 09:45:26;;;;;;;2.27;1.63;;;32.90;37.10;;;;;;5054297;28;20426;-69
2022/09/06 09:47:53;;;;;;;3.37;1.83;;;33.10;36.70;;;;;;5053824;28;20452;-69
2022/09/06 09:50:27;;;;;;;2.60;1.90;;;33.40;36.70;;;;;;5054129;28;20453;-69
2022/09/06 09:52:55;;;;;;;4.07;2.37;;;33.60;36.40;;;;;;5054280;28;20476;-69
2022/09/06 09:55:24;;;;;;;3.07;2.00;;;33.80;35.40;;;;;;5054070;28;20460;-69
2022/09/06 09:57:53;;;;;;;3.03;2.20;;;34.00;35.50;;;;;;5053961;28;20448;-69
2022/09/06 10:00:34;;;;;;;5.47;2.93;;;34.30;35.70;;;;;;5053189;28;20445;-69
2022/09/06 10:03:11;;;;;;;4.53;2.53;;;34.60;34.30;;;;;;5053470;28;20516;-69
2022/09/06 10:05:39;;;;;;;4.13;2.50;;;34.80;34.00;;;;;;5054397;28;20429;-69
2022/09/06 10:08:10;;;;;;;3.83;2.57;;;35.00;33.80;;;;;;5052488;28;20833;-69
2022/09/06 10:10:40;;;;;;;3.67;2.37;;;35.30;33.30;;;;;;5053817;28;20475;-69
2022/09/06 10:13:12;;;;;;;4.83;2.00;;;35.30;32.90;;;;;;5053910;28;20492;-69
2022/09/06 10:15:40;;;;;;;5.23;2.10;;;35.40;33.20;;;;;;5053915;28;20442;-69
2022/09/06 10:18:18;;;;;;;5.67;2.10;;;35.60;32.00;;;;;;5054343;28;20429;-69
2022/09/06 10:20:54;;;;;;;5.53;2.00;;;35.60;31.40;;;;;;5054276;28;20457;-69
2022/09/06 10:23:29;;;;;;;5.63;2.40;;;35.80;31.50;;;;;;5055002;28;20476;-70
2022/09/06 10:26:04;;;;;;;3.33;1.77;;;36.20;30.80;;;;;;5054607;28;20433;-69
2022/09/06 10:28:35;;;;;;;3.70;1.50;;;36.70;29.60;;;;;;5053618;28;20951;-69
2022/09/06 10:31:27;;;;;;;2.83;1.77;;;37.10;28.50;;;;;;5054448;28;20465;-69
2022/09/06 10:34:07;;;;;;;4.77;1.70;;;37.60;28.60;;;;;;5053344;28;20713;-69
2022/09/06 10:36:37;;;;;;;3.53;2.00;;;38.20;27.60;;;;;;5053866;28;20187;-70
2022/09/06 10:39:17;;;;;;;3.70;1.98;;;38.70;27.40;;;;;;5053784;28;20187;-69
2022/09/06 10:42:02;;;;;;;5.63;1.85;;;39.20;26.30;;;;;;5053711;28;20559;-69
2022/09/06 10:44:44;;;;;;;5.82;1.88;;;39.50;26.00;;;;;;5054252;28;20190;-69
2022/09/06 10:47:13;;;;;;;5.50;1.55;;;39.80;25.80;;;;;;5053845;28;20215;-69
2022/09/06 10:49:44;;;;;;;3.13;2.03;;;39.90;25.00;;;;;;5053566;28;20207;-69
2022/09/06 10:52:17;;;;;;;6.05;1.92;;;40.10;24.80;;;;;;5054320;28;20237;-69
2022/09/06 10:54:46;;;;;;;6.57;1.52;;;40.30;24.90;;;;;;5054150;28;20221;-69
2022/09/06 10:57:18;;;;;;;3.50;1.55;;;40.60;24.80;;;;;;5054025;28;20203;-69
2022/09/06 10:59:50;;;;;;;8.57;1.52;;;41.00;23.80;;;;;;5053952;28;20194;-69
2022/09/06 11:02:34;;;;;;;7.40;2.53;;;41.40;23.40;;;;;;5053984;28;20223;-68
2022/09/06 11:05:06;;;;;;;3.25;1.25;;;41.70;23.40;;;;;;5055148;28;20245;-69
2022/09/06 11:07:37;;;;;;;3.97;1.70;;;41.90;22.90;;;;;;5054266;28;20191;-68
2022/09/06 11:10:10;;;;;;;3.45;1.58;;;42.10;22.70;;;;;;5054891;28;20191;-68
2022/09/06 11:12:43;;;;;;;3.47;1.60;;;42.20;22.50;;;;;;5059138;28;20231;-68
2022/09/06 11:15:13;;;;;;;2.67;1.67;;;42.40;22.90;;;;;;5060718;28;20257;-68
2022/09/06 11:17:45;;;;;;;8.13;2.20;;;42.50;22.60;;;;;;5059557;28;20265;-69
2022/09/06 11:20:20;;;;;;;8.13;2.13;;;42.50;22.00;;;;;;5059844;28;20191;-68
2022/09/06 11:23:10;;;;;;;4.28;1.70;;;42.60;22.20;;;;;;5058969;28;20218;-68
2022/09/06 11:26:12;;;;;;;5.68;1.67;;;42.70;21.90;;;;;;5061740;28;20191;-68
2022/09/06 11:28:44;;;;;;;2.10;1.60;;;42.80;22.00;;;;;;5051176;28;20217;-69
2022/09/06 11:31:18;;;;;;;3.83;1.77;;;42.90;21.90;;;;;;5060382;28;20210;-69
2022/09/06 11:33:48;;;;;;;4.10;1.90;;;43.00;22.00;;;;;;5060276;28;20222;-69
2022/09/06 11:36:34;;;;;;;4.72;1.50;;;43.10;22.10;;;;;;5060797;28;20294;-69
2022/09/06 11:39:04;;;;;;;6.93;2.00;;;43.40;21.70;;;;;;5060551;28;20187;-69
2022/09/06 11:41:34;;;;;;;4.00;1.30;;;43.50;21.60;;;;;;5060629;28;20583;-69
2022/09/06 11:44:01;;;;;;;2.80;1.65;;;43.60;21.20;;;;;;5061356;28;20222;-69
2022/09/06 11:47:00;;;;;;;2.83;1.50;;;43.90;21.20;;;;;;5062566;28;20620;-69
2022/09/06 11:49:40;;;;;;;2.33;1.40;;;43.80;20.60;;;;;;5058908;28;20700;-69
2022/09/06 11:52:56;;;;;;;2.38;1.20;;;43.80;21.10;;;;;;5058874;28;20603;-69
2022/09/06 11:55:30;;;;;;;5.82;1.60;;;44.10;20.70;;;;;;5056349;28;20194;-69
2022/09/06 11:57:59;;;;;;;2.22;1.67;;;44.30;20.50;;;;;;5055992;28;20557;-69
2022/09/06 12:00:26;;;;;;;1.48;1.23;;;44.50;20.20;;;;;;5056104;28;20205;-69
2022/09/06 12:02:53;;;;;;;3.55;1.50;;;44.70;19.80;;;;;;5056043;28;20222;-69
2022/09/06 12:05:26;;;;;;;1.90;1.45;;;45.00;19.80;;;;;;5056182;28;20199;-69
2022/09/06 12:08:32;;;;;;;2.10;1.40;;;45.50;19.60;;;;;;5056286;28;20191;-69
2022/09/06 12:11:23;;;;;;;3.10;1.40;;;46.00;18.70;;;;;;5056037;28;20244;-69
2022/09/06 12:14:26;;;;;;;3.10;1.20;;;46.30;18.70;;;;;;5056095;28;20276;-69
2022/09/06 12:17:27;;;;;;;2.60;1.40;;;46.90;18.20;;;;;;5056042;28;20262;-69
2022/09/06 12:20:05;;;;;;;9.05;1.58;;;47.60;17.20;;;;;;5055792;28;20667;-69
2022/09/06 12:23:03;;;;;;;3.58;1.48;;;47.80;17.30;;;;;;5055340;28;20237;-69
2022/09/06 12:25:53;;;;;;;2.25;1.35;;;47.20;17.20;;;;;;5055833;28;20195;-69
2022/09/06 12:28:27;;;;;;;3.22;1.10;;;46.80;18.00;;;;;;5055719;28;20213;-69
2022/09/06 12:30:54;;;;;;;5.45;1.50;;;47.00;18.30;;;;;;5055941;28;20198;-69
2022/09/06 12:33:25;;;;;;;3.28;1.50;;;47.20;17.00;;;;;;5056037;28;20227;-69
2022/09/06 12:35:52;;;;;;;1.52;1.30;;;47.10;16.50;;;;;;5055673;28;20191;-69
2022/09/06 12:38:24;;;;;;;2.78;1.10;;;46.90;16.50;;;;;;5055247;28;20269;-69
2022/09/06 12:40:56;;;;;;;4.38;1.20;;;46.90;16.70;;;;;;5055697;28;20191;-69
2022/09/06 12:43:25;;;;;;;3.22;1.55;;;46.60;16.60;;;;;;5055192;28;20690;-69
2022/09/06 12:45:53;;;;;;;2.50;1.15;;;46.50;16.90;;;;;;5055407;28;20237;-69
2022/09/06 12:48:27;;;;;;;4.20;1.15;;;46.60;16.30;;;;;;5055460;28;20197;-69
2022/09/06 12:51:02;;;;;;;2.25;0.95;;;46.60;15.90;;;;;;5055174;28;20658;-69
2022/09/06 12:53:30;;;;;;;1.70;1.00;;;46.60;15.00;;;;;;5055389;28;20663;-69
2022/09/06 12:56:05;;;;;;;2.50;1.13;;;46.70;15.10;;;;;;5055360;28;20186;-69
2022/09/06 12:58:33;;;;;;;2.70;1.30;;;46.90;14.50;;;;;;5055321;28;20206;-69
2022/09/06 13:01:07;;;;;;;4.15;1.17;;;47.20;14.50;;;;;;5054798;28;20650;-69
2022/09/06 13:03:39;;;;;;;1.30;0.88;;;47.20;13.30;;;;;;5055052;28;20218;-69
2022/09/06 13:06:06;;;;;;;3.53;0.82;;;46.90;12.90;;;;;;5055320;28;20240;-69
2022/09/06 13:08:36;;;;;;;3.45;0.90;;;46.60;13.30;;;;;;5054780;28;20577;-69